sensor_id;sensor_type;location;lat;lon;timestamp;temperature;humidity
12926;DHT22;6529;50.566;9.774;2023-08-21T00:01:29;22.10;99.90
12926;DHT22;6529;50.566;9.774;2023-08-21T00:03:54;22.10;99.90
12926;DHT22;6529;50.566;9.774;2023-08-21T00:06:20;22.10;99.90
12926;DHT22;6529;50.566;9.774;2023-08-21T00:08:45;22.00;99.90
12926;DHT22;6529;50.566;9.774;2023-08-21T00:11:11;22.00;99.90
12926;DHT22;6529;50.566;9.774;2023-08-21T00:13:37;21.90;99.90
12926;DHT22;6529;50.566;9.774;2023-08-21T00:16:02;21.70;99.90
12926;DHT22;6529;50.566;9.774;2023-08-21T00:18:28;21.60;99.90
12926;DHT22;6529;50.566;9.774;2023-08-21T00:20:54;21.40;99.90
12926;DHT22;6529;50.566;9.774;2023-08-21T00:23:19;21.40;99.90
12926;DHT22;6529;50.566;9.774;2023-08-21T00:25:46;21.50;99.90
12926;DHT22;6529;50.566;9.774;2023-08-21T00:28:12;21.50;99.90
12926;DHT22;6529;50.566;9.774;2023-08-21T00:30:38;21.50;99.90
12926;DHT22;6529;50.566;9.774;2023-08-21T00:33:04;21.40;99.90
12926;DHT22;6529;50.566;9.774;2023-08-21T00:35:30;21.30;99.90
12926;DHT22;6529;50.566;9.774;2023-08-21T00:37:55;21.30;99.90
12926;DHT22;6529;50.566;9.774;2023-08-21T00:40:21;21.40;99.90
12926;DHT22;6529;50.566;9.774;2023-08-21T00:42:46;21.40;99.90
12926;DHT22;6529;50.566;9.774;2023-08-21T00:45:12;21.40;99.90
12926;DHT22;6529;50.566;9.774;2023-08-21T00:47:37;21.40;99.90
12926;DHT22;6529;50.566;9.774;2023-08-21T00:50:06;21.30;99.90
12926;DHT22;6529;50.566;9.774;2023-08-21T00:52:32;21.30;99.90
12926;DHT22;6529;50.566;9.774;2023-08-21T00:54:59;21.30;99.90
12926;DHT22;6529;50.566;9.774;2023-08-21T00:57:25;21.30;99.90
12926;DHT22;6529;50.566;9.774;2023-08-21T00:59:51;21.30;99.90
12926;DHT22;6529;50.566;9.774;2023-08-21T01:02:17;21.30;99.90
12926;DHT22;6529;50.566;9.774;2023-08-21T01:04:44;21.40;99.90
12926;DHT22;6529;50.566;9.774;2023-08-21T01:07:10;21.40;99.90
12926;DHT22;6529;50.566;9.774;2023-08-21T01:15:00;21.20;99.90
12926;DHT22;6529;50.566;9.774;2023-08-21T01:17:28;21.30;99.90
12926;DHT22;6529;50.566;9.774;2023-08-21T01:19:55;21.30;99.90
12926;DHT22;6529;50.566;9.774;2023-08-21T01:22:26;21.30;99.90
12926;DHT22;6529;50.566;9.774;2023-08-21T01:24:53;21.40;99.90
12926;DHT22;6529;50.566;9.774;2023-08-21T01:27:18;21.30;99.90
12926;DHT22;6529;50.566;9.774;2023-08-21T01:29:46;21.30;99.90
12926;DHT22;6529;50.566;9.774;2023-08-21T01:32:37;21.40;99.90
12926;DHT22;6529;50.566;9.774;2023-08-21T01:35:04;21.50;99.90
12926;DHT22;6529;50.566;9.774;2023-08-21T01:37:31;21.40;99.90
12926;DHT22;6529;50.566;9.774;2023-08-21T01:40:00;21.30;99.90
12926;DHT22;6529;50.566;9.774;2023-08-21T01:42:25;21.40;99.90
12926;DHT22;6529;50.566;9.774;2023-08-21T01:44:51;21.40;99.90
12926;DHT22;6529;50.566;9.774;2023-08-21T01:47:16;21.50;99.90
12926;DHT22;6529;50.566;9.774;2023-08-21T01:49:42;21.60;99.90
12926;DHT22;6529;50.566;9.774;2023-08-21T01:52:07;21.50;99.90
12926;DHT22;6529;50.566;9.774;2023-08-21T01:54:33;21.30;99.90
12926;DHT22;6529;50.566;9.774;2023-08-21T01:56:58;21.30;99.90
12926;DHT22;6529;50.566;9.774;2023-08-21T01:59:24;21.30;99.90
12926;DHT22;6529;50.566;9.774;2023-08-21T02:01:50;21.30;99.90
12926;DHT22;6529;50.566;9.774;2023-08-21T02:04:16;21.30;99.90
12926;DHT22;6529;50.566;9.774;2023-08-21T02:06:41;21.30;99.90
12926;DHT22;6529;50.566;9.774;2023-08-21T02:09:09;21.20;99.90
12926;DHT22;6529;50.566;9.774;2023-08-21T02:11:35;21.10;99.90
12926;DHT22;6529;50.566;9.774;2023-08-21T02:14:00;21.10;99.90
12926;DHT22;6529;50.566;9.774;2023-08-21T02:16:26;21.00;99.90
12926;DHT22;6529;50.566;9.774;2023-08-21T02:18:51;20.80;99.90
12926;DHT22;6529;50.566;9.774;2023-08-21T02:21:17;20.70;99.90
12926;DHT22;6529;50.566;9.774;2023-08-21T02:23:42;20.60;99.90
12926;DHT22;6529;50.566;9.774;2023-08-21T02:26:08;20.50;99.90
12926;DHT22;6529;50.566;9.774;2023-08-21T02:28:33;20.60;99.90
12926;DHT22;6529;50.566;9.774;2023-08-21T02:30:59;20.50;99.90
12926;DHT22;6529;50.566;9.774;2023-08-21T02:33:24;20.40;99.90
12926;DHT22;6529;50.566;9.774;2023-08-21T02:35:50;20.40;99.90
12926;DHT22;6529;50.566;9.774;2023-08-21T02:38:16;20.50;99.90
12926;DHT22;6529;50.566;9.774;2023-08-21T02:40:42;20.40;99.90
12926;DHT22;6529;50.566;9.774;2023-08-21T02:43:07;20.40;99.90
12926;DHT22;6529;50.566;9.774;2023-08-21T02:45:33;20.30;99.90
12926;DHT22;6529;50.566;9.774;2023-08-21T02:47:59;20.30;99.90
12926;DHT22;6529;50.566;9.774;2023-08-21T02:50:24;20.30;99.90
12926;DHT22;6529;50.566;9.774;2023-08-21T02:52:50;20.40;99.90
12926;DHT22;6529;50.566;9.774;2023-08-21T02:55:15;20.30;99.90
12926;DHT22;6529;50.566;9.774;2023-08-21T02:57:41;20.40;99.90
12926;DHT22;6529;50.566;9.774;2023-08-21T03:00:07;20.30;99.90
12926;DHT22;6529;50.566;9.774;2023-08-21T03:02:34;20.30;99.90
12926;DHT22;6529;50.566;9.774;2023-08-21T03:04:59;20.40;99.90
12926;DHT22;6529;50.566;9.774;2023-08-21T03:07:25;20.40;99.90
12926;DHT22;6529;50.566;9.774;2023-08-21T03:09:51;20.30;99.90
12926;DHT22;6529;50.566;9.774;2023-08-21T03:12:16;20.30;99.90
12926;DHT22;6529;50.566;9.774;2023-08-21T03:14:42;20.40;99.90
12926;DHT22;6529;50.566;9.774;2023-08-21T03:17:07;20.40;99.90
12926;DHT22;6529;50.566;9.774;2023-08-21T03:19:33;20.30;99.90
12926;DHT22;6529;50.566;9.774;2023-08-21T03:21:59;20.30;99.90
12926;DHT22;6529;50.566;9.774;2023-08-21T03:24:24;20.40;99.90
12926;DHT22;6529;50.566;9.774;2023-08-21T03:26:50;20.30;99.90
12926;DHT22;6529;50.566;9.774;2023-08-21T03:29:15;20.30;99.90
12926;DHT22;6529;50.566;9.774;2023-08-21T03:31:41;20.40;99.90
12926;DHT22;6529;50.566;9.774;2023-08-21T03:34:07;20.50;99.90
12926;DHT22;6529;50.566;9.774;2023-08-21T03:36:32;20.50;99.90
12926;DHT22;6529;50.566;9.774;2023-08-21T03:38:59;20.50;99.90
12926;DHT22;6529;50.566;9.774;2023-08-21T03:41:25;20.60;99.90
12926;DHT22;6529;50.566;9.774;2023-08-21T03:43:51;20.50;99.90
12926;DHT22;6529;50.566;9.774;2023-08-21T03:46:16;20.50;99.90
12926;DHT22;6529;50.566;9.774;2023-08-21T03:48:42;20.40;99.90
12926;DHT22;6529;50.566;9.774;2023-08-21T03:51:07;20.30;99.90
12926;DHT22;6529;50.566;9.774;2023-08-21T03:53:33;20.30;99.90
12926;DHT22;6529;50.566;9.774;2023-08-21T03:55:58;20.20;99.90
12926;DHT22;6529;50.566;9.774;2023-08-21T03:58:24;20.10;99.90
12926;DHT22;6529;50.566;9.774;2023-08-21T04:00:52;20.00;99.90
12926;DHT22;6529;50.566;9.774;2023-08-21T04:03:17;19.90;99.90
12926;DHT22;6529;50.566;9.774;2023-08-21T04:05:43;19.90;99.90
12926;DHT22;6529;50.566;9.774;2023-08-21T04:08:08;19.80;99.90
12926;DHT22;6529;50.566;9.774;2023-08-21T04:10:34;20.00;99.90
12926;DHT22;6529;50.566;9.774;2023-08-21T04:13:00;20.00;99.90
12926;DHT22;6529;50.566;9.774;2023-08-21T04:15:26;19.90;99.90
12926;DHT22;6529;50.566;9.774;2023-08-21T04:17:51;19.90;99.90
12926;DHT22;6529;50.566;9.774;2023-08-21T04:20:19;20.00;99.90
12926;DHT22;6529;50.566;9.774;2023-08-21T04:22:45;20.10;99.90
12926;DHT22;6529;50.566;9.774;2023-08-21T04:25:11;20.00;99.90
12926;DHT22;6529;50.566;9.774;2023-08-21T04:27:37;20.10;99.90
12926;DHT22;6529;50.566;9.774;2023-08-21T04:30:03;20.00;99.90
12926;DHT22;6529;50.566;9.774;2023-08-21T04:32:28;20.00;99.90
12926;DHT22;6529;50.566;9.774;2023-08-21T04:34:54;20.10;99.90
12926;DHT22;6529;50.566;9.774;2023-08-21T04:37:20;20.00;99.90
12926;DHT22;6529;50.566;9.774;2023-08-21T04:39:46;19.90;99.90
12926;DHT22;6529;50.566;9.774;2023-08-21T04:42:15;19.90;99.90
12926;DHT22;6529;50.566;9.774;2023-08-21T04:44:40;19.90;99.90
12926;DHT22;6529;50.566;9.774;2023-08-21T04:47:26;19.90;99.90
12926;DHT22;6529;50.566;9.774;2023-08-21T04:49:52;19.90;99.90
12926;DHT22;6529;50.566;9.774;2023-08-21T04:52:19;19.90;99.90
12926;DHT22;6529;50.566;9.774;2023-08-21T04:54:45;19.80;99.90
12926;DHT22;6529;50.566;9.774;2023-08-21T04:57:10;19.80;99.90
12926;DHT22;6529;50.566;9.774;2023-08-21T04:59:36;20.10;99.90
12926;DHT22;6529;50.566;9.774;2023-08-21T05:02:02;21.40;99.90
12926;DHT22;6529;50.566;9.774;2023-08-21T05:04:28;22.20;99.90
12926;DHT22;6529;50.566;9.774;2023-08-21T05:06:53;22.70;1.00
12926;DHT22;6529;50.566;9.774;2023-08-21T05:09:19;23.10;1.00
12926;DHT22;6529;50.566;9.774;2023-08-21T05:11:44;23.30;1.00
12926;DHT22;6529;50.566;9.774;2023-08-21T05:14:10;23.20;1.00
12926;DHT22;6529;50.566;9.774;2023-08-21T05:16:35;23.00;99.90
12926;DHT22;6529;50.566;9.774;2023-08-21T05:19:01;22.60;1.00
12926;DHT22;6529;50.566;9.774;2023-08-21T05:21:27;22.70;1.00
12926;DHT22;6529;50.566;9.774;2023-08-21T05:23:53;23.00;99.90
12926;DHT22;6529;50.566;9.774;2023-08-21T05:26:19;23.20;99.90
12926;DHT22;6529;50.566;9.774;2023-08-21T05:28:45;23.50;24.10
12926;DHT22;6529;50.566;9.774;2023-08-21T05:31:11;23.70;1.00
12926;DHT22;6529;50.566;9.774;2023-08-21T05:33:36;23.80;99.90
12926;DHT22;6529;50.566;9.774;2023-08-21T05:36:02;23.80;99.90
12926;DHT22;6529;50.566;9.774;2023-08-21T05:38:27;23.70;1.00
12926;DHT22;6529;50.566;9.774;2023-08-21T05:40:53;23.80;1.00
12926;DHT22;6529;50.566;9.774;2023-08-21T05:43:19;23.80;1.00
12926;DHT22;6529;50.566;9.774;2023-08-21T05:45:44;23.90;1.00
12926;DHT22;6529;50.566;9.774;2023-08-21T05:48:10;23.90;68.10
12926;DHT22;6529;50.566;9.774;2023-08-21T05:50:36;24.00;1.00
12926;DHT22;6529;50.566;9.774;2023-08-21T05:53:05;23.50;99.90
12926;DHT22;6529;50.566;9.774;2023-08-21T05:55:31;23.00;99.90
12926;DHT22;6529;50.566;9.774;2023-08-21T05:57:56;22.60;1.00
12926;DHT22;6529;50.566;9.774;2023-08-21T06:00:22;22.70;41.20
12926;DHT22;6529;50.566;9.774;2023-08-21T06:02:47;23.00;2.70
12926;DHT22;6529;50.566;9.774;2023-08-21T06:05:13;23.10;1.00
12926;DHT22;6529;50.566;9.774;2023-08-21T06:07:39;23.20;1.00
12926;DHT22;6529;50.566;9.774;2023-08-21T06:10:09;23.30;1.00
12926;DHT22;6529;50.566;9.774;2023-08-21T06:12:37;23.20;20.10
12926;DHT22;6529;50.566;9.774;2023-08-21T06:15:03;23.10;49.60
12926;DHT22;6529;50.566;9.774;2023-08-21T06:17:28;22.90;99.90
12926;DHT22;6529;50.566;9.774;2023-08-21T06:19:54;23.10;17.90
12926;DHT22;6529;50.566;9.774;2023-08-21T06:22:20;23.40;1.00
12926;DHT22;6529;50.566;9.774;2023-08-21T06:24:45;23.50;1.00
12926;DHT22;6529;50.566;9.774;2023-08-21T06:27:11;23.60;99.90
12926;DHT22;6529;50.566;9.774;2023-08-21T06:29:36;23.60;99.90
12926;DHT22;6529;50.566;9.774;2023-08-21T06:32:03;23.70;99.90
12926;DHT22;6529;50.566;9.774;2023-08-21T06:34:29;23.80;99.90
12926;DHT22;6529;50.566;9.774;2023-08-21T06:36:54;24.10;1.00
12926;DHT22;6529;50.566;9.774;2023-08-21T06:39:20;24.00;19.30
12926;DHT22;6529;50.566;9.774;2023-08-21T06:41:45;23.90;99.90
12926;DHT22;6529;50.566;9.774;2023-08-21T06:44:11;23.90;1.00
12926;DHT22;6529;50.566;9.774;2023-08-21T06:46:36;23.90;99.90
12926;DHT22;6529;50.566;9.774;2023-08-21T06:49:02;23.90;99.90
12926;DHT22;6529;50.566;9.774;2023-08-21T06:51:28;23.70;1.00
12926;DHT22;6529;50.566;9.774;2023-08-21T06:53:54;23.90;99.90
12926;DHT22;6529;50.566;9.774;2023-08-21T06:56:19;24.10;1.00
12926;DHT22;6529;50.566;9.774;2023-08-21T06:58:45;24.30;99.90
12926;DHT22;6529;50.566;9.774;2023-08-21T07:01:11;24.20;1.00
12926;DHT22;6529;50.566;9.774;2023-08-21T07:03:36;24.10;1.00
12926;DHT22;6529;50.566;9.774;2023-08-21T07:06:02;23.70;1.00
12926;DHT22;6529;50.566;9.774;2023-08-21T07:08:28;23.20;99.90
12926;DHT22;6529;50.566;9.774;2023-08-21T07:10:54;22.90;99.90
12926;DHT22;6529;50.566;9.774;2023-08-21T07:13:20;22.40;99.90
12926;DHT22;6529;50.566;9.774;2023-08-21T07:15:46;22.30;99.90
12926;DHT22;6529;50.566;9.774;2023-08-21T07:18:12;22.40;99.90
12926;DHT22;6529;50.566;9.774;2023-08-21T07:20:38;22.40;99.90
12926;DHT22;6529;50.566;9.774;2023-08-21T07:23:04;22.30;99.90
12926;DHT22;6529;50.566;9.774;2023-08-21T07:25:29;22.20;99.90
12926;DHT22;6529;50.566;9.774;2023-08-21T07:27:56;22.30;99.90
12926;DHT22;6529;50.566;9.774;2023-08-21T07:30:22;22.40;99.90
12926;DHT22;6529;50.566;9.774;2023-08-21T07:32:48;22.60;99.90
12926;DHT22;6529;50.566;9.774;2023-08-21T07:35:14;22.80;99.90
12926;DHT22;6529;50.566;9.774;2023-08-21T07:37:44;22.80;99.90
12926;DHT22;6529;50.566;9.774;2023-08-21T07:40:10;22.70;99.90
12926;DHT22;6529;50.566;9.774;2023-08-21T07:42:35;22.80;99.90
12926;DHT22;6529;50.566;9.774;2023-08-21T07:45:01;22.90;99.90
12926;DHT22;6529;50.566;9.774;2023-08-21T07:47:27;22.90;99.90
12926;DHT22;6529;50.566;9.774;2023-08-21T07:49:52;23.00;99.90
12926;DHT22;6529;50.566;9.774;2023-08-21T07:52:19;23.10;99.90
12926;DHT22;6529;50.566;9.774;2023-08-21T07:54:44;23.10;99.90
12926;DHT22;6529;50.566;9.774;2023-08-21T07:57:10;23.40;99.90
12926;DHT22;6529;50.566;9.774;2023-08-21T07:59:35;23.50;99.90
12926;DHT22;6529;50.566;9.774;2023-08-21T08:02:01;23.70;99.90
12926;DHT22;6529;50.566;9.774;2023-08-21T08:04:28;23.90;99.90
12926;DHT22;6529;50.566;9.774;2023-08-21T08:06:54;24.00;99.90
12926;DHT22;6529;50.566;9.774;2023-08-21T08:09:19;24.10;99.90
12926;DHT22;6529;50.566;9.774;2023-08-21T08:11:45;24.10;99.90
12926;DHT22;6529;50.566;9.774;2023-08-21T08:14:10;24.30;99.90
12926;DHT22;6529;50.566;9.774;2023-08-21T08:16:36;24.40;99.90
12926;DHT22;6529;50.566;9.774;2023-08-21T08:19:01;24.40;10.10
12926;DHT22;6529;50.566;9.774;2023-08-21T08:21:27;24.60;2.30
12926;DHT22;6529;50.566;9.774;2023-08-21T08:23:52;24.70;1.00
12926;DHT22;6529;50.566;9.774;2023-08-21T08:26:18;24.90;1.00
12926;DHT22;6529;50.566;9.774;2023-08-21T08:28:44;25.00;1.00
12926;DHT22;6529;50.566;9.774;2023-08-21T08:31:17;25.10;1.00
12926;DHT22;6529;50.566;9.774;2023-08-21T08:33:43;25.30;1.00
12926;DHT22;6529;50.566;9.774;2023-08-21T08:36:09;25.40;99.90
12926;DHT22;6529;50.566;9.774;2023-08-21T08:38:34;25.50;99.90
12926;DHT22;6529;50.566;9.774;2023-08-21T08:41:02;25.80;1.00
12926;DHT22;6529;50.566;9.774;2023-08-21T08:43:30;25.80;99.90
12926;DHT22;6529;50.566;9.774;2023-08-21T08:45:58;25.90;99.90
12926;DHT22;6529;50.566;9.774;2023-08-21T08:48:24;25.90;1.00
12926;DHT22;6529;50.566;9.774;2023-08-21T08:50:50;26.10;1.00
12926;DHT22;6529;50.566;9.774;2023-08-21T08:53:18;26.30;99.90
12926;DHT22;6529;50.566;9.774;2023-08-21T08:55:46;26.30;99.90
12926;DHT22;6529;50.566;9.774;2023-08-21T08:58:13;26.50;1.00
12926;DHT22;6529;50.566;9.774;2023-08-21T09:00:39;26.50;99.90
12926;DHT22;6529;50.566;9.774;2023-08-21T09:03:05;26.60;1.00
12926;DHT22;6529;50.566;9.774;2023-08-21T09:05:30;26.80;99.90
12926;DHT22;6529;50.566;9.774;2023-08-21T09:10:32;27.00;1.00
12926;DHT22;6529;50.566;9.774;2023-08-21T09:12:57;27.10;99.90
12926;DHT22;6529;50.566;9.774;2023-08-21T09:15:30;27.20;1.00
12926;DHT22;6529;50.566;9.774;2023-08-21T09:17:55;27.40;1.00
12926;DHT22;6529;50.566;9.774;2023-08-21T09:20:21;27.50;99.90
12926;DHT22;6529;50.566;9.774;2023-08-21T09:22:56;27.60;94.00
12926;DHT22;6529;50.566;9.774;2023-08-21T09:25:23;27.80;1.00
12926;DHT22;6529;50.566;9.774;2023-08-21T09:27:51;27.90;1.00
12926;DHT22;6529;50.566;9.774;2023-08-21T09:30:17;28.10;1.00
12926;DHT22;6529;50.566;9.774;2023-08-21T09:32:57;28.10;20.40
12926;DHT22;6529;50.566;9.774;2023-08-21T09:35:23;28.30;1.00
12926;DHT22;6529;50.566;9.774;2023-08-21T09:37:49;28.50;99.90
12926;DHT22;6529;50.566;9.774;2023-08-21T09:40:19;28.50;99.90
12926;DHT22;6529;50.566;9.774;2023-08-21T09:42:44;28.50;1.00
12926;DHT22;6529;50.566;9.774;2023-08-21T09:45:10;28.60;1.00
12926;DHT22;6529;50.566;9.774;2023-08-21T09:47:37;28.70;52.80
12926;DHT22;6529;50.566;9.774;2023-08-21T09:50:05;28.80;99.90
12926;DHT22;6529;50.566;9.774;2023-08-21T09:52:31;28.90;1.00
12926;DHT22;6529;50.566;9.774;2023-08-21T09:54:57;29.10;1.00
12926;DHT22;6529;50.566;9.774;2023-08-21T09:57:23;29.10;1.00
12926;DHT22;6529;50.566;9.774;2023-08-21T09:59:53;29.00;1.00
12926;DHT22;6529;50.566;9.774;2023-08-21T10:02:21;29.00;1.00
12926;DHT22;6529;50.566;9.774;2023-08-21T10:04:48;29.10;1.00
12926;DHT22;6529;50.566;9.774;2023-08-21T10:07:16;29.20;1.00
12926;DHT22;6529;50.566;9.774;2023-08-21T10:09:45;29.40;99.90
12926;DHT22;6529;50.566;9.774;2023-08-21T10:12:14;29.50;99.90
12926;DHT22;6529;50.566;9.774;2023-08-21T10:14:42;29.70;99.90
12926;DHT22;6529;50.566;9.774;2023-08-21T10:17:07;30.00;99.90
12926;DHT22;6529;50.566;9.774;2023-08-21T10:19:34;30.20;99.90
12926;DHT22;6529;50.566;9.774;2023-08-21T10:22:00;30.20;99.90
12926;DHT22;6529;50.566;9.774;2023-08-21T10:24:36;30.20;99.90
12926;DHT22;6529;50.566;9.774;2023-08-21T10:27:08;30.40;99.90
12926;DHT22;6529;50.566;9.774;2023-08-21T10:29:34;30.40;99.90
12926;DHT22;6529;50.566;9.774;2023-08-21T10:32:04;30.10;1.00
12926;DHT22;6529;50.566;9.774;2023-08-21T10:34:35;30.20;1.00
12926;DHT22;6529;50.566;9.774;2023-08-21T10:37:05;30.40;1.00
12926;DHT22;6529;50.566;9.774;2023-08-21T10:39:32;30.50;1.00
12926;DHT22;6529;50.566;9.774;2023-08-21T10:42:04;30.90;1.00
12926;DHT22;6529;50.566;9.774;2023-08-21T10:47:30;31.20;99.90
12926;DHT22;6529;50.566;9.774;2023-08-21T10:50:00;31.30;59.20
12926;DHT22;6529;50.566;9.774;2023-08-21T10:52:28;31.50;99.90
12926;DHT22;6529;50.566;9.774;2023-08-21T10:55:03;31.40;71.90
12926;DHT22;6529;50.566;9.774;2023-08-21T10:57:32;31.70;99.90
12926;DHT22;6529;50.566;9.774;2023-08-21T11:00:05;31.70;99.90
12926;DHT22;6529;50.566;9.774;2023-08-21T11:02:35;31.60;1.00
12926;DHT22;6529;50.566;9.774;2023-08-21T11:05:01;31.70;99.90
12926;DHT22;6529;50.566;9.774;2023-08-21T11:07:30;31.40;1.00
12926;DHT22;6529;50.566;9.774;2023-08-21T11:09:56;31.60;1.00
12926;DHT22;6529;50.566;9.774;2023-08-21T11:12:23;31.80;1.00
12926;DHT22;6529;50.566;9.774;2023-08-21T11:14:50;31.90;1.00
12926;DHT22;6529;50.566;9.774;2023-08-21T11:17:16;31.90;1.00
12926;DHT22;6529;50.566;9.774;2023-08-21T11:19:42;32.00;1.00
12926;DHT22;6529;50.566;9.774;2023-08-21T11:22:08;31.80;1.00
12926;DHT22;6529;50.566;9.774;2023-08-21T11:24:46;32.10;1.00
12926;DHT22;6529;50.566;9.774;2023-08-21T11:27:13;32.20;1.00
12926;DHT22;6529;50.566;9.774;2023-08-21T11:29:43;32.40;99.90
12926;DHT22;6529;50.566;9.774;2023-08-21T11:34:50;32.30;99.90
12926;DHT22;6529;50.566;9.774;2023-08-21T11:37:20;32.40;99.90
12926;DHT22;6529;50.566;9.774;2023-08-21T11:39:48;32.70;1.00
12926;DHT22;6529;50.566;9.774;2023-08-21T11:42:15;33.00;1.00
12926;DHT22;6529;50.566;9.774;2023-08-21T11:47:10;33.40;1.00
12926;DHT22;6529;50.566;9.774;2023-08-21T11:49:37;33.40;99.90
12926;DHT22;6529;50.566;9.774;2023-08-21T11:52:04;33.50;99.90
12926;DHT22;6529;50.566;9.774;2023-08-21T11:54:37;33.60;99.90
12926;DHT22;6529;50.566;9.774;2023-08-21T11:57:07;33.60;99.90
12926;DHT22;6529;50.566;9.774;2023-08-21T11:59:33;32.80;99.90
12926;DHT22;6529;50.566;9.774;2023-08-21T12:01:59;32.50;1.00
12926;DHT22;6529;50.566;9.774;2023-08-21T12:04:25;32.10;99.90
12926;DHT22;6529;50.566;9.774;2023-08-21T12:06:50;31.60;1.00
12926;DHT22;6529;50.566;9.774;2023-08-21T12:09:16;31.30;1.00
12926;DHT22;6529;50.566;9.774;2023-08-21T12:11:44;31.30;1.00
12926;DHT22;6529;50.566;9.774;2023-08-21T12:14:10;31.20;1.00
12926;DHT22;6529;50.566;9.774;2023-08-21T12:16:35;31.00;1.00
12926;DHT22;6529;50.566;9.774;2023-08-21T12:19:01;30.70;1.00
12926;DHT22;6529;50.566;9.774;2023-08-21T12:21:28;30.60;1.00
12926;DHT22;6529;50.566;9.774;2023-08-21T12:23:54;30.40;1.00
12926;DHT22;6529;50.566;9.774;2023-08-21T12:26:19;30.20;25.00
12926;DHT22;6529;50.566;9.774;2023-08-21T12:28:49;30.20;99.90
12926;DHT22;6529;50.566;9.774;2023-08-21T12:31:14;30.20;99.90
12926;DHT22;6529;50.566;9.774;2023-08-21T12:33:40;30.40;99.90
12926;DHT22;6529;50.566;9.774;2023-08-21T12:36:06;30.70;1.00
12926;DHT22;6529;50.566;9.774;2023-08-21T12:38:31;31.20;1.00
12926;DHT22;6529;50.566;9.774;2023-08-21T12:40:58;31.10;1.00
12926;DHT22;6529;50.566;9.774;2023-08-21T12:43:23;30.90;1.00
12926;DHT22;6529;50.566;9.774;2023-08-21T12:45:49;30.70;13.10
12926;DHT22;6529;50.566;9.774;2023-08-21T12:48:14;30.70;1.00
12926;DHT22;6529;50.566;9.774;2023-08-21T12:50:40;30.80;1.00
12926;DHT22;6529;50.566;9.774;2023-08-21T12:53:06;31.40;1.00
12926;DHT22;6529;50.566;9.774;2023-08-21T12:55:31;32.00;1.00
12926;DHT22;6529;50.566;9.774;2023-08-21T12:57:57;32.70;1.00
12926;DHT22;6529;50.566;9.774;2023-08-21T13:00:22;33.00;1.00
12926;DHT22;6529;50.566;9.774;2023-08-21T13:02:48;33.40;99.90
12926;DHT22;6529;50.566;9.774;2023-08-21T13:05:14;33.70;1.00
12926;DHT22;6529;50.566;9.774;2023-08-21T13:07:41;33.90;99.90
12926;DHT22;6529;50.566;9.774;2023-08-21T13:10:07;33.70;99.90
12926;DHT22;6529;50.566;9.774;2023-08-21T13:12:33;33.40;99.90
12926;DHT22;6529;50.566;9.774;2023-08-21T13:14:58;33.20;99.90
12926;DHT22;6529;50.566;9.774;2023-08-21T13:17:24;33.20;99.90
12926;DHT22;6529;50.566;9.774;2023-08-21T13:19:50;33.20;99.90
12926;DHT22;6529;50.566;9.774;2023-08-21T13:22:18;33.10;99.90
12926;DHT22;6529;50.566;9.774;2023-08-21T13:24:44;33.30;99.90
12926;DHT22;6529;50.566;9.774;2023-08-21T13:27:10;33.40;99.90
12926;DHT22;6529;50.566;9.774;2023-08-21T13:29:35;33.70;99.90
12926;DHT22;6529;50.566;9.774;2023-08-21T13:32:01;33.90;99.90
12926;DHT22;6529;50.566;9.774;2023-08-21T13:34:26;33.70;99.90
12926;DHT22;6529;50.566;9.774;2023-08-21T13:36:52;33.90;99.90
12926;DHT22;6529;50.566;9.774;2023-08-21T13:39:17;33.90;99.90
12926;DHT22;6529;50.566;9.774;2023-08-21T13:41:43;34.20;99.90
12926;DHT22;6529;50.566;9.774;2023-08-21T13:44:09;34.10;99.90
12926;DHT22;6529;50.566;9.774;2023-08-21T13:46:35;34.10;99.90
12926;DHT22;6529;50.566;9.774;2023-08-21T13:49:00;34.10;99.90
12926;DHT22;6529;50.566;9.774;2023-08-21T13:51:26;34.00;99.90
12926;DHT22;6529;50.566;9.774;2023-08-21T13:53:51;34.10;99.90
12926;DHT22;6529;50.566;9.774;2023-08-21T13:56:17;34.10;99.90
12926;DHT22;6529;50.566;9.774;2023-08-21T13:58:43;34.10;99.90
12926;DHT22;6529;50.566;9.774;2023-08-21T14:01:08;33.60;99.90
12926;DHT22;6529;50.566;9.774;2023-08-21T14:03:34;33.30;99.90
12926;DHT22;6529;50.566;9.774;2023-08-21T14:06:00;33.00;99.90
12926;DHT22;6529;50.566;9.774;2023-08-21T14:08:25;32.80;99.90
12926;DHT22;6529;50.566;9.774;2023-08-21T14:10:51;32.70;99.90
12926;DHT22;6529;50.566;9.774;2023-08-21T14:13:16;32.70;99.90
12926;DHT22;6529;50.566;9.774;2023-08-21T14:15:42;32.70;1.00
12926;DHT22;6529;50.566;9.774;2023-08-21T14:18:07;32.50;99.90
12926;DHT22;6529;50.566;9.774;2023-08-21T14:20:33;32.60;99.90
12926;DHT22;6529;50.566;9.774;2023-08-21T14:22:59;33.10;99.90
12926;DHT22;6529;50.566;9.774;2023-08-21T14:25:25;33.60;99.90
12926;DHT22;6529;50.566;9.774;2023-08-21T14:27:50;33.90;99.90
12926;DHT22;6529;50.566;9.774;2023-08-21T14:30:16;34.10;99.90
12926;DHT22;6529;50.566;9.774;2023-08-21T14:32:42;34.20;99.90
12926;DHT22;6529;50.566;9.774;2023-08-21T14:35:08;34.20;99.90
12926;DHT22;6529;50.566;9.774;2023-08-21T14:37:34;34.20;99.90
12926;DHT22;6529;50.566;9.774;2023-08-21T14:40:00;34.00;99.90
12926;DHT22;6529;50.566;9.774;2023-08-21T14:42:25;33.90;99.90
12926;DHT22;6529;50.566;9.774;2023-08-21T14:44:51;33.90;99.90
12926;DHT22;6529;50.566;9.774;2023-08-21T14:47:16;33.90;99.90
12926;DHT22;6529;50.566;9.774;2023-08-21T14:49:42;33.90;99.90
12926;DHT22;6529;50.566;9.774;2023-08-21T14:52:08;33.90;99.90
12926;DHT22;6529;50.566;9.774;2023-08-21T14:54:36;33.90;99.90
12926;DHT22;6529;50.566;9.774;2023-08-21T14:57:02;33.70;99.90
12926;DHT22;6529;50.566;9.774;2023-08-21T14:59:27;33.60;99.90
12926;DHT22;6529;50.566;9.774;2023-08-21T15:01:53;33.50;99.90
12926;DHT22;6529;50.566;9.774;2023-08-21T15:04:20;33.60;99.90
12926;DHT22;6529;50.566;9.774;2023-08-21T15:06:46;33.90;99.90
12926;DHT22;6529;50.566;9.774;2023-08-21T15:09:11;33.90;99.90
12926;DHT22;6529;50.566;9.774;2023-08-21T15:11:38;33.70;99.90
12926;DHT22;6529;50.566;9.774;2023-08-21T15:14:09;33.50;99.90
12926;DHT22;6529;50.566;9.774;2023-08-21T15:16:36;33.30;99.90
12926;DHT22;6529;50.566;9.774;2023-08-21T15:19:01;33.40;99.90
12926;DHT22;6529;50.566;9.774;2023-08-21T15:21:28;33.30;99.90
12926;DHT22;6529;50.566;9.774;2023-08-21T15:23:54;33.50;99.90
12926;DHT22;6529;50.566;9.774;2023-08-21T15:26:20;33.40;99.90
12926;DHT22;6529;50.566;9.774;2023-08-21T15:28:46;33.80;99.90
12926;DHT22;6529;50.566;9.774;2023-08-21T15:31:12;34.20;99.90
12926;DHT22;6529;50.566;9.774;2023-08-21T15:33:37;34.20;99.90
12926;DHT22;6529;50.566;9.774;2023-08-21T15:36:03;34.20;99.90
12926;DHT22;6529;50.566;9.774;2023-08-21T15:38:28;34.30;99.90
12926;DHT22;6529;50.566;9.774;2023-08-21T15:40:54;34.20;99.90
12926;DHT22;6529;50.566;9.774;2023-08-21T15:43:20;34.30;99.90
12926;DHT22;6529;50.566;9.774;2023-08-21T15:45:45;34.00;99.90
12926;DHT22;6529;50.566;9.774;2023-08-21T15:48:11;33.50;99.90
12926;DHT22;6529;50.566;9.774;2023-08-21T15:50:37;33.40;99.90
12926;DHT22;6529;50.566;9.774;2023-08-21T15:53:02;33.50;99.90
12926;DHT22;6529;50.566;9.774;2023-08-21T15:55:28;33.30;99.90
12926;DHT22;6529;50.566;9.774;2023-08-21T15:57:53;33.40;99.90
12926;DHT22;6529;50.566;9.774;2023-08-21T16:00:19;33.40;99.90